createdAt,value
2022-09-20T00:01:09.531Z,2.25
2022-09-20T00:03:37.413Z,1.77
2022-09-20T00:06:05.757Z,2.22
2022-09-20T00:08:32.730Z,2.33
2022-09-20T00:11:08.675Z,2.00
2022-09-20T00:13:36.750Z,2.30
2022-09-20T00:16:08.264Z,2.15
2022-09-20T00:18:35.360Z,2.50
2022-09-20T00:21:01.986Z,2.28
2022-09-20T00:23:30.166Z,2.03
2022-09-20T00:26:02.616Z,2.25
2022-09-20T00:28:29.898Z,2.20
2022-09-20T00:30:57.015Z,2.30
2022-09-20T00:33:25.231Z,2.30
2022-09-20T00:35:51.734Z,2.30
2022-09-20T00:38:19.975Z,2.40
2022-09-20T00:40:46.520Z,2.10
2022-09-20T00:43:16.020Z,2.20
2022-09-20T00:45:44.673Z,2.13
2022-09-20T00:48:11.160Z,2.08
2022-09-20T00:50:43.890Z,2.65
2022-09-20T00:53:34.513Z,1.92
2022-09-20T00:56:08.013Z,1.88
2022-09-20T00:58:38.598Z,2.35
2022-09-20T01:01:06.069Z,2.17
2022-09-20T01:03:34.318Z,2.72
2022-09-20T01:06:04.584Z,1.80
2022-09-20T01:08:32.240Z,2.38
2022-09-20T01:10:58.766Z,2.00
2022-09-20T01:13:25.331Z,2.40
2022-09-20T01:15:52.340Z,1.88
2022-09-20T01:18:20.207Z,2.50
2022-09-20T01:20:48.216Z,2.20
2022-09-20T01:23:44.372Z,2.20
2022-09-20T01:26:29.194Z,2.35
2022-09-20T01:29:08.420Z,2.40
2022-09-20T01:31:36.419Z,2.25
2022-09-20T01:34:06.011Z,2.67
2022-09-20T01:36:42.965Z,2.53
2022-09-20T01:39:15.320Z,2.20
2022-09-20T01:41:47.785Z,2.60
2022-09-20T01:44:39.243Z,2.40
2022-09-20T01:47:40.300Z,1.90
2022-09-20T01:50:18.969Z,2.33
2022-09-20T01:52:57.914Z,1.80
2022-09-20T01:55:42.776Z,2.25
2022-09-20T01:58:33.941Z,2.13
2022-09-20T02:01:39.707Z,2.08
2022-09-20T02:04:27.996Z,2.42
2022-09-20T02:07:19.613Z,2.30
2022-09-20T02:10:05.027Z,2.08
2022-09-20T02:12:46.500Z,2.10
2022-09-20T02:15:15.894Z,2.03
2022-09-20T02:18:20.254Z,2.25
2022-09-20T02:20:54.240Z,2.13
2022-09-20T02:23:45.596Z,2.28
2022-09-20T02:26:21.167Z,2.15
2022-09-20T02:28:55.004Z,2.33
2022-09-20T02:31:30.448Z,2.15
2022-09-20T02:34:08.675Z,2.20
2022-09-20T02:37:05.687Z,2.30
2022-09-20T02:40:06.786Z,2.33
2022-09-20T02:42:38.491Z,2.08
2022-09-20T02:45:11.730Z,2.20
2022-09-20T02:47:39.954Z,2.50
2022-09-20T02:51:00.790Z,2.33
2022-09-20T02:53:32.969Z,2.30
2022-09-20T02:56:39.005Z,2.20
2022-09-20T02:59:41.196Z,2.33
2022-09-20T03:02:44.173Z,2.00
2022-09-20T03:05:27.691Z,2.25
2022-09-20T03:08:22.076Z,2.30
2022-09-20T03:11:04.142Z,2.10
2022-09-20T03:14:01.192Z,2.40
2022-09-20T03:16:32.034Z,2.50
2022-09-20T03:19:22.165Z,2.38
2022-09-20T03:21:52.498Z,2.70
2022-09-20T03:24:49.585Z,2.63
2022-09-20T03:27:47.612Z,2.92
2022-09-20T03:30:31.441Z,2.63
2022-09-20T03:33:07.328Z,2.90
2022-09-20T03:35:42.857Z,3.15
2022-09-20T03:38:28.097Z,3.15
2022-09-20T03:40:58.764Z,3.20
2022-09-20T03:43:39.151Z,2.88
2022-09-20T03:46:08.646Z,2.75
2022-09-20T03:49:00.549Z,2.90
2022-09-20T03:51:34.264Z,3.00
2022-09-20T03:54:23.116Z,2.72
2022-09-20T03:57:04.433Z,2.92
2022-09-20T03:59:40.308Z,2.80
2022-09-20T04:02:37.889Z,2.58
2022-09-20T04:05:12.443Z,2.50
2022-09-20T04:07:56.367Z,2.60
2022-09-20T04:11:00.722Z,2.78
2022-09-20T04:14:01.553Z,2.70
2022-09-20T04:16:52.595Z,2.95
2022-09-20T04:19:29.745Z,2.88
2022-09-20T04:22:01.096Z,2.75
2022-09-20T04:24:39.990Z,2.63
2022-09-20T04:27:18.554Z,2.85
2022-09-20T04:29:57.583Z,2.70
2022-09-20T04:32:48.847Z,2.45
2022-09-20T04:35:40.050Z,3.10
2022-09-20T04:38:13.105Z,3.33
2022-09-20T04:40:48.638Z,2.80
2022-09-20T04:43:56.454Z,2.75
2022-09-20T04:46:31.960Z,2.50
2022-09-20T04:49:33.860Z,2.90
2022-09-20T04:52:20.996Z,2.65
2022-09-20T04:55:06.372Z,3.30
2022-09-20T04:57:54.592Z,2.58
2022-09-20T05:00:22.800Z,3.15
2022-09-20T05:02:55.306Z,3.33
2022-09-20T05:05:27.825Z,3.80
2022-09-20T05:08:03.283Z,3.30
2022-09-20T05:10:35.883Z,3.45
2022-09-20T05:13:13.486Z,3.20
2022-09-20T05:15:46.284Z,3.30
2022-09-20T05:18:32.997Z,4.30
2022-09-20T05:21:11.439Z,5.32
2022-09-20T05:24:03.058Z,3.47
2022-09-20T05:26:34.687Z,5.32
2022-09-20T05:29:17.818Z,6.03
2022-09-20T05:31:53.413Z,5.28
2022-09-20T05:34:35.139Z,4.50
2022-09-20T05:37:15.320Z,4.57
2022-09-20T05:39:46.490Z,4.95
2022-09-20T05:42:22.865Z,4.47
2022-09-20T05:45:18.160Z,4.22
2022-09-20T05:48:12.559Z,3.55
2022-09-20T05:50:59.516Z,3.67
2022-09-20T05:54:05.896Z,3.70
2022-09-20T05:57:10.250Z,3.42
2022-09-20T06:00:10.577Z,3.10
2022-09-20T06:02:49.198Z,3.80
2022-09-20T06:05:18.331Z,4.40
2022-09-20T06:07:55.837Z,4.43
2022-09-20T06:10:39.764Z,4.10
2022-09-20T06:13:12.135Z,4.05
2022-09-20T06:15:45.849Z,3.67
2022-09-20T06:18:23.147Z,3.72
2022-09-20T06:21:11.085Z,3.70
2022-09-20T06:23:37.607Z,3.72
2022-09-20T06:26:09.492Z,3.58
2022-09-20T06:28:41.484Z,3.60
2022-09-20T06:31:09.127Z,3.50
2022-09-20T06:34:02.328Z,4.00
2022-09-20T06:36:55.554Z,4.07
2022-09-20T06:40:02.685Z,4.20
2022-09-20T06:42:29.623Z,4.00
2022-09-20T06:44:56.637Z,4.47
2022-09-20T06:47:23.361Z,4.15
2022-09-20T06:49:50.434Z,4.15
